createdAt,value
2022-08-26T00:01:41.442Z,16.21
2022-08-26T00:04:09.958Z,16.20
2022-08-26T00:06:36.752Z,16.19
2022-08-26T00:09:04.097Z,16.18
2022-08-26T00:11:34.748Z,16.16
2022-08-26T00:14:01.945Z,16.14
2022-08-26T00:16:29.007Z,16.11
2022-08-26T00:18:55.880Z,16.08
2022-08-26T00:21:22.478Z,16.05
2022-08-26T00:23:50.181Z,16.02
2022-08-26T00:26:17.016Z,15.97
2022-08-26T00:28:44.706Z,15.94
2022-08-26T00:31:11.546Z,15.90
2022-08-26T00:33:39.519Z,15.87
2022-08-26T00:36:07.018Z,15.84
2022-08-26T00:38:37.827Z,15.82
2022-08-26T00:41:05.829Z,15.78
2022-08-26T00:43:47.398Z,15.76
2022-08-26T00:46:24.848Z,15.73
2022-08-26T00:48:57.023Z,15.68
2022-08-26T00:51:29.519Z,15.66
2022-08-26T00:54:03.612Z,15.64
2022-08-26T00:56:40.055Z,15.63
2022-08-26T00:59:11.079Z,15.62
2022-08-26T01:01:40.685Z,15.60
2022-08-26T01:04:08.945Z,15.58
2022-08-26T01:06:35.711Z,15.55
2022-08-26T01:09:03.342Z,15.52
2022-08-26T01:11:31.481Z,15.51
2022-08-26T01:14:01.538Z,15.49
2022-08-26T01:16:30.215Z,15.47
2022-08-26T01:19:02.521Z,15.45
2022-08-26T01:22:02.116Z,15.43
2022-08-26T01:24:30.286Z,15.41
2022-08-26T01:27:02.767Z,15.39
2022-08-26T01:29:31.716Z,15.34
2022-08-26T01:31:59.031Z,15.31
2022-08-26T01:34:29.054Z,15.26
2022-08-26T01:37:06.922Z,15.21
2022-08-26T01:39:35.711Z,15.17
2022-08-26T01:42:05.118Z,15.14
2022-08-26T01:44:46.494Z,15.12
2022-08-26T01:47:16.908Z,15.09
2022-08-26T01:49:47.654Z,15.04
2022-08-26T01:52:23.780Z,15.01
2022-08-26T01:54:56.821Z,14.97
2022-08-26T01:57:24.649Z,14.93
2022-08-26T01:59:54.940Z,14.89
2022-08-26T02:02:23.002Z,14.86
2022-08-26T02:05:01.793Z,14.83
2022-08-26T02:07:31.162Z,14.79
2022-08-26T02:10:00.159Z,14.76
2022-08-26T02:12:26.961Z,14.74
2022-08-26T02:14:57.839Z,14.73
2022-08-26T02:17:39.248Z,14.72
2022-08-26T02:20:07.441Z,14.70
2022-08-26T02:22:42.725Z,14.69
2022-08-26T02:25:28.837Z,14.68
2022-08-26T02:27:56.243Z,14.65
2022-08-26T02:30:27.107Z,14.62
2022-08-26T02:32:57.738Z,14.59
2022-08-26T02:35:25.001Z,14.56
2022-08-26T02:37:52.514Z,14.52
2022-08-26T02:40:23.478Z,14.49
2022-08-26T02:42:53.049Z,14.46
2022-08-26T02:45:23.991Z,14.44
2022-08-26T02:47:51.560Z,14.41
2022-08-26T02:50:19.777Z,14.39
2022-08-26T02:52:47.707Z,14.37
2022-08-26T02:55:15.149Z,14.37
2022-08-26T02:57:41.750Z,14.36
2022-08-26T03:00:11.915Z,14.35
2022-08-26T03:02:39.597Z,14.34
2022-08-26T03:05:06.864Z,14.33
2022-08-26T03:07:33.874Z,14.32
2022-08-26T03:10:01.018Z,14.30
2022-08-26T03:12:28.388Z,14.26
2022-08-26T03:14:55.696Z,14.22
2022-08-26T03:17:23.207Z,14.18
2022-08-26T03:19:57.247Z,14.14
2022-08-26T03:22:24.948Z,14.10
2022-08-26T03:24:51.781Z,14.06
2022-08-26T03:27:18.484Z,14.02
2022-08-26T03:30:03.986Z,13.99
2022-08-26T03:32:31.326Z,13.96
2022-08-26T03:34:57.891Z,13.93
2022-08-26T03:37:25.019Z,13.90
2022-08-26T03:39:52.749Z,13.87
2022-08-26T03:42:21.488Z,13.85
2022-08-26T03:44:49.241Z,13.83
2022-08-26T03:47:15.876Z,13.81
2022-08-26T03:49:42.508Z,13.82
2022-08-26T03:52:09.959Z,13.82
2022-08-26T03:54:36.706Z,13.83
2022-08-26T03:57:03.502Z,13.85
2022-08-26T03:59:30.118Z,13.86
2022-08-26T04:01:57.582Z,13.87
2022-08-26T04:04:25.108Z,13.91
2022-08-26T04:06:56.765Z,13.97
2022-08-26T04:09:24.141Z,14.05
2022-08-26T04:11:51.777Z,14.14
2022-08-26T04:14:23.007Z,14.23
2022-08-26T04:16:51.238Z,14.33
2022-08-26T04:19:19.644Z,14.46
2022-08-26T04:21:48.434Z,14.57
2022-08-26T04:24:16.455Z,14.68
2022-08-26T04:26:44.619Z,14.82
2022-08-26T04:29:17.492Z,14.95
2022-08-26T04:31:44.627Z,15.09
2022-08-26T04:34:11.417Z,15.24
2022-08-26T04:36:40.959Z,15.40
2022-08-26T04:39:16.210Z,15.55
2022-08-26T04:41:43.900Z,15.69
2022-08-26T04:44:11.357Z,15.83
2022-08-26T04:46:39.915Z,15.99
2022-08-26T04:49:11.970Z,16.16
2022-08-26T04:51:39.086Z,16.33
2022-08-26T04:54:06.471Z,16.50
2022-08-26T04:56:38.546Z,16.65
2022-08-26T04:59:08.112Z,16.78
2022-08-26T05:01:49.700Z,16.87
2022-08-26T05:04:18.972Z,16.96
2022-08-26T05:06:47.667Z,17.04
2022-08-26T05:09:15.526Z,17.18
2022-08-26T05:11:42.207Z,17.31
2022-08-26T05:14:09.048Z,17.51
2022-08-26T05:16:35.613Z,17.70
2022-08-26T05:19:03.703Z,17.87
2022-08-26T05:21:31.201Z,18.07
2022-08-26T05:23:58.218Z,18.21
2022-08-26T05:26:28.011Z,18.32
2022-08-26T05:28:56.221Z,18.48
2022-08-26T05:31:26.903Z,18.70
2022-08-26T05:33:56.295Z,18.95
2022-08-26T05:36:27.001Z,19.19
2022-08-26T05:38:55.501Z,19.43
2022-08-26T05:41:27.810Z,19.67
2022-08-26T05:44:02.134Z,19.93
2022-08-26T05:46:29.225Z,20.19
2022-08-26T05:48:56.546Z,20.43
2022-08-26T05:51:26.113Z,20.62
2022-08-26T05:53:54.557Z,20.82
2022-08-26T05:56:27.108Z,21.05
2022-08-26T05:58:55.634Z,21.29
2022-08-26T06:01:25.343Z,21.48
2022-08-26T06:04:01.787Z,21.48
2022-08-26T06:06:31.746Z,21.45
2022-08-26T06:09:00.040Z,21.44
2022-08-26T06:11:31.840Z,21.51
2022-08-26T06:14:04.025Z,21.68
2022-08-26T06:16:34.250Z,21.93
2022-08-26T06:19:03.203Z,22.19
2022-08-26T06:21:32.670Z,22.43
2022-08-26T06:24:27.057Z,22.65
2022-08-26T06:26:56.652Z,22.94
2022-08-26T06:29:25.517Z,23.18
2022-08-26T06:31:54.110Z,23.45
2022-08-26T06:34:26.659Z,23.68
2022-08-26T06:36:59.059Z,23.90
2022-08-26T06:39:25.806Z,24.12
2022-08-26T06:41:52.471Z,24.36
2022-08-26T06:44:19.717Z,24.56
2022-08-26T06:46:50.315Z,24.71
2022-08-26T06:49:18.161Z,24.95
2022-08-26T06:51:52.545Z,25.31
2022-08-26T06:54:19.101Z,25.62
2022-08-26T06:56:45.831Z,25.94
2022-08-26T06:59:15.393Z,26.24
2022-08-26T07:01:46.052Z,26.48
2022-08-26T07:04:15.931Z,26.70
2022-08-26T07:06:50.089Z,26.95
2022-08-26T07:09:22.106Z,27.22
2022-08-26T07:11:50.603Z,27.48
2022-08-26T07:14:19.310Z,27.79
2022-08-26T07:16:51.679Z,28.09
2022-08-26T07:19:29.093Z,28.41
2022-08-26T07:22:01.198Z,28.68
2022-08-26T07:24:28.466Z,28.93
2022-08-26T07:27:05.509Z,29.12
2022-08-26T07:29:33.662Z,29.31
2022-08-26T07:32:00.298Z,29.46
2022-08-26T07:34:27.162Z,29.61
2022-08-26T07:36:53.957Z,29.72
2022-08-26T07:39:22.645Z,29.85
2022-08-26T07:41:49.521Z,30.00
2022-08-26T07:44:16.118Z,30.10
2022-08-26T07:46:44.267Z,30.21
2022-08-26T07:49:20.507Z,30.33
2022-08-26T07:51:49.262Z,30.44
2022-08-26T07:54:16.408Z,30.49
2022-08-26T07:56:44.276Z,30.56
2022-08-26T07:59:13.687Z,30.62
2022-08-26T08:01:41.198Z,30.68
2022-08-26T08:04:13.981Z,30.76
2022-08-26T08:06:41.287Z,30.82
2022-08-26T08:09:13.244Z,30.89
2022-08-26T08:11:40.860Z,30.98
2022-08-26T08:14:08.546Z,31.11
2022-08-26T08:16:41.516Z,31.29
2022-08-26T08:19:14.293Z,31.57
2022-08-26T08:21:42.253Z,31.81
2022-08-26T08:24:10.588Z,32.02
2022-08-26T08:26:37.482Z,32.22
2022-08-26T08:29:04.173Z,32.41
2022-08-26T08:34:19.509Z,32.67
2022-08-26T08:36:49.768Z,32.83
2022-08-26T08:39:20.439Z,33.07
2022-08-26T08:42:13.047Z,33.31
2022-08-26T08:44:43.792Z,33.42
2022-08-26T08:47:31.658Z,33.47
2022-08-26T08:50:03.076Z,33.58
2022-08-26T08:52:34.818Z,33.73
2022-08-26T08:55:04.969Z,33.96
2022-08-26T08:58:04.860Z,34.18
2022-08-26T09:00:41.359Z,34.36
2022-08-26T09:03:15.319Z,34.40
2022-08-26T09:05:48.564Z,34.46
2022-08-26T09:08:21.074Z,34.53
2022-08-26T09:11:00.348Z,34.70
2022-08-26T09:13:28.548Z,34.77
2022-08-26T09:16:13.675Z,34.78
2022-08-26T09:18:42.928Z,34.79
2022-08-26T09:21:16.176Z,34.79
2022-08-26T09:23:49.127Z,34.73
2022-08-26T09:26:29.086Z,34.70
2022-08-26T09:29:08.330Z,34.81
2022-08-26T09:31:38.473Z,34.90
2022-08-26T09:34:26.425Z,35.01
2022-08-26T09:36:59.924Z,35.15
2022-08-26T09:39:37.889Z,35.34
2022-08-26T09:42:32.509Z,35.39
2022-08-26T09:45:03.424Z,35.36
2022-08-26T09:47:34.409Z,35.34
2022-08-26T09:50:18.122Z,35.40
2022-08-26T09:52:45.270Z,35.47
2022-08-26T09:55:21.497Z,35.46
2022-08-26T09:57:54.292Z,35.30
2022-08-26T10:00:29.660Z,35.33
2022-08-26T10:03:10.256Z,35.52
2022-08-26T10:05:42.985Z,35.55
2022-08-26T10:08:31.450Z,35.40
2022-08-26T10:11:10.914Z,35.26
2022-08-26T10:13:42.335Z,35.21
2022-08-26T10:16:21.321Z,35.10
2022-08-26T10:19:12.771Z,35.03
2022-08-26T10:22:04.663Z,35.09
2022-08-26T10:24:37.865Z,35.10
2022-08-26T10:27:33.930Z,35.23
2022-08-26T10:30:07.412Z,35.39
2022-08-26T10:32:41.521Z,35.52
2022-08-26T10:35:11.935Z,35.46
2022-08-26T10:37:45.179Z,35.47
2022-08-26T10:40:23.037Z,35.52
2022-08-26T10:43:18.487Z,35.40
2022-08-26T10:45:58.612Z,35.40
2022-08-26T10:49:12.784Z,35.36
2022-08-26T10:51:51.391Z,35.27
2022-08-26T10:54:44.476Z,35.15
2022-08-26T10:57:29.554Z,35.23
2022-08-26T11:00:29.491Z,35.42
2022-08-26T11:03:40.890Z,35.51
2022-08-26T11:06:19.220Z,35.31
2022-08-26T11:08:56.546Z,35.33
2022-08-26T11:11:44.712Z,35.52
2022-08-26T11:14:38.557Z,35.83
2022-08-26T11:17:13.158Z,36.09
2022-08-26T11:19:59.346Z,36.22
2022-08-26T11:22:37.496Z,36.19
2022-08-26T11:25:24.385Z,36.35
2022-08-26T11:27:58.908Z,36.53
2022-08-26T11:30:33.833Z,36.63
2022-08-26T11:33:01.226Z,36.19
2022-08-26T11:35:33.904Z,35.98
2022-08-26T11:38:15.119Z,36.10
2022-08-26T11:40:42.525Z,36.37
2022-08-26T11:43:23.072Z,36.54
2022-08-26T11:46:06.487Z,36.69
2022-08-26T11:48:38.604Z,36.94
2022-08-26T11:51:23.020Z,37.20
2022-08-26T11:53:50.644Z,37.42
2022-08-26T11:56:26.535Z,37.53
2022-08-26T11:58:59.085Z,37.57
2022-08-26T12:01:32.849Z,37.50
2022-08-26T12:04:00.086Z,37.39
2022-08-26T12:06:37.629Z,37.44
2022-08-26T12:09:22.297Z,37.47
2022-08-26T12:11:49.019Z,37.54
2022-08-26T12:14:23.752Z,37.69
2022-08-26T12:16:53.478Z,37.84
2022-08-26T12:19:32.967Z,38.02
2022-08-26T12:22:09.748Z,38.15
2022-08-26T12:24:43.527Z,38.20
2022-08-26T12:27:22.086Z,38.11
2022-08-26T12:30:22.667Z,38.02
2022-08-26T12:32:57.993Z,38.13
2022-08-26T12:35:28.097Z,38.21
2022-08-26T12:37:55.389Z,38.18
2022-08-26T12:40:42.672Z,38.17
2022-08-26T12:43:13.909Z,38.23
2022-08-26T12:45:54.190Z,38.25
2022-08-26T12:48:31.501Z,38.27
2022-08-26T12:50:59.599Z,38.09
2022-08-26T12:53:32.691Z,37.88
2022-08-26T12:56:18.707Z,37.54
2022-08-26T12:59:00.300Z,37.29
2022-08-26T13:01:27.119Z,37.23
2022-08-26T13:03:53.795Z,37.16
2022-08-26T13:06:23.588Z,37.18
2022-08-26T13:08:58.648Z,37.19
2022-08-26T13:11:25.282Z,37.18
2022-08-26T13:14:18.353Z,37.25
2022-08-26T13:16:50.601Z,37.41
2022-08-26T13:19:21.473Z,37.40
2022-08-26T13:21:54.123Z,37.29
2022-08-26T13:24:35.214Z,37.16
2022-08-26T13:27:03.766Z,37.14
2022-08-26T13:29:30.347Z,37.04
2022-08-26T13:31:57.623Z,37.11
2022-08-26T13:34:25.157Z,37.24
2022-08-26T13:36:54.551Z,37.30
2022-08-26T13:39:22.197Z,37.13
2022-08-26T13:41:49.409Z,36.96
2022-08-26T13:44:15.966Z,36.87
2022-08-26T13:46:43.087Z,36.79
2022-08-26T13:49:11.049Z,36.72
2022-08-26T13:51:38.606Z,36.76
2022-08-26T13:54:05.720Z,36.83
2022-08-26T13:56:32.713Z,36.93
2022-08-26T13:59:00.767Z,37.05
2022-08-26T14:01:29.653Z,37.18
2022-08-26T14:03:56.665Z,37.27
2022-08-26T14:06:24.657Z,37.33
2022-08-26T14:08:51.310Z,37.35
2022-08-26T14:11:18.103Z,37.23
2022-08-26T14:13:44.806Z,37.11
2022-08-26T14:16:21.427Z,36.97
2022-08-26T14:18:50.851Z,36.88
2022-08-26T14:21:17.921Z,36.84
2022-08-26T14:23:44.630Z,36.76
2022-08-26T14:26:21.214Z,36.62
2022-08-26T14:28:59.086Z,36.50
2022-08-26T14:31:28.530Z,36.49
2022-08-26T14:33:59.253Z,36.47
2022-08-26T14:36:30.856Z,36.42
2022-08-26T14:39:01.669Z,36.45
2022-08-26T14:41:31.041Z,36.48
2022-08-26T14:44:07.483Z,36.43
2022-08-26T14:46:44.039Z,36.43
2022-08-26T14:49:11.794Z,36.44
2022-08-26T14:51:40.453Z,36.54
2022-08-26T14:54:11.537Z,36.63
2022-08-26T14:56:42.151Z,36.62
2022-08-26T14:59:09.742Z,36.56
2022-08-26T15:01:36.823Z,36.46
2022-08-26T15:04:03.646Z,36.40
2022-08-26T15:06:31.318Z,36.35
2022-08-26T15:08:59.208Z,36.29
2022-08-26T15:11:26.312Z,36.19
2022-08-26T15:13:52.944Z,36.07
2022-08-26T15:16:20.443Z,36.03
2022-08-26T15:18:47.627Z,36.00
2022-08-26T15:21:14.177Z,35.96
2022-08-26T15:23:41.155Z,35.86
2022-08-26T15:26:15.268Z,35.80
2022-08-26T15:28:41.979Z,35.75
2022-08-26T15:31:09.048Z,35.71
2022-08-26T15:33:37.123Z,35.72
2022-08-26T15:36:05.819Z,35.70
2022-08-26T15:38:34.837Z,35.60
2022-08-26T15:41:03.688Z,35.48
2022-08-26T15:43:30.460Z,35.32
2022-08-26T15:45:57.547Z,35.19
2022-08-26T15:48:24.681Z,35.11
2022-08-26T15:50:54.491Z,35.00
2022-08-26T15:53:22.084Z,34.84
2022-08-26T15:55:49.514Z,34.65
2022-08-26T15:58:16.693Z,34.50
2022-08-26T16:00:44.298Z,34.38
2022-08-26T16:03:11.444Z,34.27
2022-08-26T16:05:39.878Z,34.14
2022-08-26T16:08:07.758Z,33.98
2022-08-26T16:10:37.736Z,33.84
2022-08-26T16:13:04.872Z,33.70
2022-08-26T16:15:32.821Z,33.55
2022-08-26T16:18:01.758Z,33.36
2022-08-26T16:20:29.193Z,33.14
2022-08-26T16:22:55.899Z,32.94
2022-08-26T16:25:22.633Z,32.71
2022-08-26T16:27:51.260Z,32.45
2022-08-26T16:30:19.516Z,32.20
2022-08-26T16:32:47.256Z,31.97
2022-08-26T16:35:15.783Z,31.74
2022-08-26T16:37:42.954Z,31.53
2022-08-26T16:40:10.523Z,31.33
2022-08-26T16:42:37.697Z,31.11
2022-08-26T16:45:05.780Z,30.88
2022-08-26T16:47:36.354Z,30.67
2022-08-26T16:50:05.944Z,30.47
2022-08-26T16:52:32.686Z,30.28
2022-08-26T16:54:59.468Z,30.12
2022-08-26T16:57:26.028Z,29.95
2022-08-26T16:59:52.651Z,29.79
2022-08-26T17:02:19.389Z,29.62
2022-08-26T17:04:47.142Z,29.45
2022-08-26T17:07:17.007Z,29.26
2022-08-26T19:42:01.343Z,20.91
2022-08-26T19:44:46.736Z,20.81
2022-08-26T19:47:14.645Z,20.75
2022-08-26T19:49:41.664Z,20.65
2022-08-26T19:52:10.553Z,20.56
2022-08-26T19:54:39.090Z,20.49
2022-08-26T19:57:06.106Z,20.40
2022-08-26T19:59:35.640Z,20.30
2022-08-26T20:02:08.533Z,20.23
2022-08-26T20:04:38.850Z,20.16
2022-08-26T20:07:06.316Z,20.09
2022-08-26T20:09:33.669Z,20.01
2022-08-26T20:12:02.297Z,19.94
2022-08-26T20:14:29.604Z,19.87
2022-08-26T20:16:56.690Z,19.81
2022-08-26T20:19:42.343Z,19.74
2022-08-26T20:22:10.013Z,19.67
2022-08-26T20:24:37.205Z,19.59
2022-08-26T20:27:07.702Z,19.53
2022-08-26T20:29:35.859Z,19.43
2022-08-26T20:32:05.472Z,19.38
2022-08-26T20:34:33.438Z,19.32
2022-08-26T20:37:00.519Z,19.26
2022-08-26T20:39:30.781Z,19.21
2022-08-26T20:41:58.178Z,19.17
2022-08-26T20:44:25.234Z,19.13
2022-08-26T20:46:52.607Z,19.07
2022-08-26T20:49:19.645Z,19.05
2022-08-26T20:51:51.011Z,18.98
2022-08-26T20:54:23.939Z,18.92
2022-08-26T20:56:54.295Z,18.86
2022-08-26T20:59:21.434Z,18.80
2022-08-26T21:01:48.846Z,18.77
2022-08-26T21:04:20.517Z,18.74
2022-08-26T21:06:52.818Z,18.70
2022-08-26T21:09:22.145Z,18.67
2022-08-26T21:11:49.556Z,18.65
2022-08-26T21:14:17.365Z,18.63
2022-08-26T21:16:45.814Z,18.59
2022-08-26T21:19:15.051Z,18.55
2022-08-26T21:21:42.443Z,18.51
2022-08-26T21:24:09.210Z,18.47
2022-08-26T21:26:36.501Z,18.41
2022-08-26T21:29:04.723Z,18.35
2022-08-26T21:31:31.506Z,18.29
2022-08-26T21:33:58.737Z,18.22
2022-08-26T21:36:26.029Z,18.17
2022-08-26T21:38:56.216Z,18.13
2022-08-26T21:41:23.479Z,18.08
2022-08-26T21:43:53.321Z,18.04
2022-08-26T21:46:23.104Z,17.99
2022-08-26T21:48:59.591Z,17.94
2022-08-26T21:51:29.963Z,17.89
2022-08-26T21:53:58.189Z,17.85
2022-08-26T21:56:27.354Z,17.81
2022-08-26T21:58:55.593Z,17.77
2022-08-26T22:01:26.328Z,17.73
2022-08-26T22:03:53.915Z,17.70
2022-08-26T22:06:23.800Z,17.68
2022-08-26T22:08:51.692Z,17.67
2022-08-26T22:11:19.513Z,17.66
2022-08-26T22:13:48.114Z,17.65
2022-08-26T22:16:15.171Z,17.62
2022-08-26T22:18:43.185Z,17.60
2022-08-26T22:21:15.421Z,17.58
2022-08-26T22:23:43.173Z,17.56
2022-08-26T22:26:11.501Z,17.52
2022-08-26T22:28:38.846Z,17.46
2022-08-26T22:31:08.068Z,17.41
2022-08-26T22:33:34.876Z,17.34
2022-08-26T22:36:01.789Z,17.28
2022-08-26T22:38:28.529Z,17.22
2022-08-26T22:40:56.460Z,17.15
2022-08-26T22:43:24.609Z,17.09
2022-08-26T22:45:52.477Z,17.02
2022-08-26T22:48:22.147Z,16.97
2022-08-26T22:50:50.486Z,16.92
2022-08-26T22:53:17.889Z,16.88
2022-08-26T22:55:45.024Z,16.84
2022-08-26T22:58:14.037Z,16.81
2022-08-26T23:00:42.052Z,16.78
2022-08-26T23:03:08.957Z,16.76
2022-08-26T23:05:35.920Z,16.75
2022-08-26T23:08:03.084Z,16.74
2022-08-26T23:10:30.000Z,16.71
2022-08-26T23:12:57.358Z,16.68
2022-08-26T23:15:24.203Z,16.65
2022-08-26T23:17:57.029Z,16.62
2022-08-26T23:20:27.437Z,16.58
2022-08-26T23:22:55.550Z,16.56
2022-08-26T23:25:23.032Z,16.53
2022-08-26T23:27:51.958Z,16.49
2022-08-26T23:30:21.949Z,16.46
2022-08-26T23:32:49.422Z,16.42
2022-08-26T23:35:19.574Z,16.37
2022-08-26T23:37:50.763Z,16.33
2022-08-26T23:40:31.983Z,16.28
2022-08-26T23:43:02.884Z,16.22
2022-08-26T23:45:31.343Z,16.17
2022-08-26T23:47:58.958Z,16.11
2022-08-26T23:50:48.369Z,16.04
2022-08-26T23:53:20.420Z,15.99
2022-08-26T23:55:49.508Z,15.94
2022-08-26T23:58:18.104Z,15.90
